Time;durP1;ratioP1;P1;durP2;ratioP2;P2;SDS_P1;SDS_P2;PMS_P1;PMS_P2;Temp;Humidity;BMP_temperature;BMP_pressure;BME280_temperature;BME280_humidity;BME280_pressure;Samples;Min_cycle;Max_cycle;Signal;HPM_P1;HPM_P2
2022/09/16 00:01:00;;;;;;;3.90;3.60;;;15.80;99.90;;;;;;5028954;28;20201;-48
2022/09/16 00:03:28;;;;;;;4.23;4.00;;;15.80;99.90;;;;;;5029683;28;20207;-49
2022/09/16 00:05:55;;;;;;;3.40;3.10;;;15.90;99.90;;;;;;5028580;28;20226;-49
2022/09/16 00:08:24;;;;;;;4.27;3.90;;;15.90;99.90;;;;;;5023071;28;20226;-49
2022/09/16 00:10:51;;;;;;;3.87;3.67;;;15.90;99.90;;;;;;5027496;28;20202;-48
2022/09/16 00:13:18;;;;;;;3.83;3.73;;;15.80;99.90;;;;;;5030883;28;20241;-48
2022/09/16 00:15:49;;;;;;;3.77;3.57;;;15.80;99.90;;;;;;5029659;28;20217;-48
2022/09/16 00:18:16;;;;;;;3.60;3.30;;;15.80;99.90;;;;;;5030277;28;20233;-49
2022/09/16 00:20:45;;;;;;;2.83;2.73;;;15.70;99.90;;;;;;5028639;28;20194;-48
2022/09/16 00:23:12;;;;;;;4.20;4.00;;;15.60;99.90;;;;;;5028937;28;20206;-49
2022/09/16 00:25:41;;;;;;;4.53;4.23;;;15.60;99.90;;;;;;5021924;28;20737;-48
2022/09/16 00:28:08;;;;;;;4.00;3.57;;;15.60;99.90;;;;;;5019560;28;20215;-48
2022/09/16 00:30:35;;;;;;;4.13;3.80;;;15.70;99.90;;;;;;5026097;28;20572;-47
2022/09/16 00:33:02;;;;;;;3.87;3.57;;;15.60;99.90;;;;;;5028331;28;20619;-48
2022/09/16 00:35:29;;;;;;;4.13;3.70;;;15.70;99.90;;;;;;5029976;28;20211;-48
2022/09/16 00:37:56;;;;;;;4.73;4.40;;;15.70;99.90;;;;;;5030902;28;20253;-48
2022/09/16 00:40:23;;;;;;;4.67;4.37;;;15.70;99.90;;;;;;5031755;28;20202;-48
2022/09/16 00:42:52;;;;;;;4.23;3.93;;;15.70;99.90;;;;;;5034585;28;20203;-48
2022/09/16 00:45:21;;;;;;;3.07;2.90;;;15.60;99.90;;;;;;5031193;28;20691;-49
2022/09/16 00:47:52;;;;;;;4.47;3.80;;;15.60;99.90;;;;;;5033081;28;20229;-48
2022/09/16 00:50:27;;;;;;;4.83;4.53;;;15.60;99.90;;;;;;5034412;28;20202;-48
2022/09/16 00:52:56;;;;;;;4.30;4.10;;;15.60;99.90;;;;;;5034444;28;20206;-49
2022/09/16 00:55:28;;;;;;;4.37;3.90;;;15.60;99.90;;;;;;5033447;28;20630;-48
2022/09/16 00:58:02;;;;;;;4.70;4.33;;;15.50;99.90;;;;;;5028129;28;20226;-48
2022/09/16 01:00:29;;;;;;;5.00;4.70;;;15.50;99.90;;;;;;5034175;28;20257;-49
2022/09/16 01:02:56;;;;;;;6.47;4.40;;;15.50;99.90;;;;;;5033199;28;20218;-49
2022/09/16 01:05:26;;;;;;;6.17;5.67;;;15.40;99.90;;;;;;5032489;28;20199;-49
2022/09/16 01:07:54;;;;;;;4.90;4.70;;;15.40;99.90;;;;;;5033225;28;20218;-49
2022/09/16 01:10:23;;;;;;;4.83;4.43;;;15.40;99.90;;;;;;5030959;28;20213;-49
2022/09/16 01:12:54;;;;;;;4.37;4.17;;;15.40;99.90;;;;;;5033689;28;20203;-48
2022/09/16 01:15:28;;;;;;;5.00;4.60;;;15.40;99.90;;;;;;5031462;28;20207;-49
2022/09/16 01:18:11;;;;;;;5.07;4.67;;;15.40;99.90;;;;;;5033866;28;20222;-48
2022/09/16 01:21:07;;;;;;;5.90;5.53;;;15.40;99.90;;;;;;5032038;28;20684;-48
2022/09/16 01:24:07;;;;;;;4.67;4.47;;;15.50;99.90;;;;;;5029301;28;20267;-49
2022/09/16 01:27:14;;;;;;;4.70;4.37;;;15.50;99.90;;;;;;5029326;28;20207;-48
2022/09/16 01:30:14;;;;;;;6.67;5.20;;;15.50;99.90;;;;;;5033583;28;20210;-48
2022/09/16 01:32:53;;;;;;;5.00;4.80;;;15.50;99.90;;;;;;5034015;28;20579;-48
2022/09/16 01:35:30;;;;;;;5.57;5.23;;;15.50;99.90;;;;;;5030968;28;20676;-49
2022/09/16 01:38:10;;;;;;;6.10;5.57;;;15.50;99.90;;;;;;5031527;28;21094;-48
2022/09/16 01:40:47;;;;;;;5.53;5.23;;;15.50;99.90;;;;;;5024282;28;20218;-48
2022/09/16 01:43:24;;;;;;;5.80;5.30;;;15.60;99.90;;;;;;5033471;28;20210;-48
2022/09/16 01:45:55;;;;;;;5.20;4.90;;;15.50;99.90;;;;;;5030268;28;20285;-48
2022/09/16 01:48:34;;;;;;;5.13;4.83;;;15.50;99.90;;;;;;5032380;28;20218;-49
2022/09/16 01:51:06;;;;;;;5.17;4.97;;;15.50;99.90;;;;;;5025108;28;20201;-49
2022/09/16 01:53:37;;;;;;;6.80;6.13;;;15.40;99.90;;;;;;5024560;28;20210;-49
2022/09/16 01:56:09;;;;;;;5.77;5.47;;;15.30;99.90;;;;;;5030799;28;20588;-49
2022/09/16 01:58:41;;;;;;;6.67;6.03;;;15.30;99.90;;;;;;5031811;28;20830;-48
2022/09/16 02:01:18;;;;;;;6.50;6.10;;;15.30;99.90;;;;;;5033343;28;20203;-49
2022/09/16 02:03:52;;;;;;;6.10;5.70;;;15.20;99.90;;;;;;5030791;28;20198;-49
2022/09/16 02:06:23;;;;;;;6.53;6.17;;;15.20;99.90;;;;;;5026460;28;20233;-49
2022/09/16 02:08:55;;;;;;;6.77;6.37;;;15.20;99.90;;;;;;5031795;28;20238;-48
2022/09/16 02:11:23;;;;;;;7.53;6.93;;;15.10;99.90;;;;;;5031860;28;20571;-48
2022/09/16 02:13:55;;;;;;;6.20;5.90;;;15.00;99.90;;;;;;5032597;28;20202;-48
2022/09/16 02:16:29;;;;;;;6.67;6.17;;;15.00;99.90;;;;;;5025086;28;20226;-49
2022/09/16 02:19:05;;;;;;;8.00;6.00;;;15.00;99.90;;;;;;5022105;28;20237;-48
2022/09/16 02:21:34;;;;;;;7.37;6.67;;;14.90;99.90;;;;;;5030660;28;20625;-48
2022/09/16 02:24:06;;;;;;;6.27;5.73;;;14.90;99.90;;;;;;5028236;28;20207;-48
2022/09/16 02:26:37;;;;;;;6.40;5.90;;;14.80;99.90;;;;;;5027394;28;20209;-48
2022/09/16 02:29:13;;;;;;;6.83;6.17;;;14.90;99.90;;;;;;5032697;28;20727;-48
2022/09/16 02:31:43;;;;;;;6.27;5.23;;;14.90;99.90;;;;;;5032643;28;20692;-47
2022/09/16 02:34:15;;;;;;;6.23;5.77;;;14.90;99.90;;;;;;5030122;28;20206;-47
2022/09/16 02:36:45;;;;;;;5.70;5.20;;;14.80;99.90;;;;;;5031806;28;20202;-48
2022/09/16 02:39:18;;;;;;;5.30;5.00;;;14.80;99.90;;;;;;5026657;28;20204;-46
2022/09/16 02:41:45;;;;;;;4.90;4.50;;;14.80;99.90;;;;;;5030117;28;20202;-48
2022/09/16 02:44:12;;;;;;;5.37;5.07;;;14.80;99.90;;;;;;5023003;28;20248;-49
2022/09/16 02:46:46;;;;;;;5.23;4.83;;;14.80;99.90;;;;;;5028968;28;20218;-48
2022/09/16 02:49:22;;;;;;;4.47;4.13;;;14.80;99.90;;;;;;5031218;28;20206;-48
2022/09/16 02:51:57;;;;;;;5.23;4.93;;;14.80;99.90;;;;;;5032547;28;20238;-49
2022/09/16 02:54:28;;;;;;;7.60;5.27;;;14.80;99.90;;;;;;5032039;28;20206;-48
2022/09/16 02:56:56;;;;;;;5.80;5.33;;;14.80;99.90;;;;;;5022738;28;20207;-48
2022/09/16 02:59:24;;;;;;;4.93;4.63;;;14.80;99.90;;;;;;5030205;28;20205;-48
2022/09/16 03:01:51;;;;;;;5.20;5.00;;;14.80;99.90;;;;;;5031496;28;20198;-48
2022/09/16 03:04:20;;;;;;;4.60;4.40;;;14.70;99.90;;;;;;5024576;28;20222;-48
2022/09/16 03:06:48;;;;;;;5.47;5.13;;;14.80;99.90;;;;;;5029287;28;20244;-49
2022/09/16 03:09:18;;;;;;;5.17;4.93;;;14.80;99.90;;;;;;5032097;28;20202;-48
2022/09/16 03:12:05;;;;;;;5.30;5.00;;;14.70;99.90;;;;;;5021831;28;20246;-48
2022/09/16 03:14:58;;;;;;;6.27;5.90;;;14.80;99.90;;;;;;5031680;28;20199;-48
2022/09/16 03:17:47;;;;;;;5.83;5.43;;;14.80;99.90;;;;;;5007447;28;20695;-49
2022/09/16 03:20:22;;;;;;;4.63;4.33;;;14.90;99.90;;;;;;5022428;28;20312;-49
2022/09/16 03:22:59;;;;;;;5.73;5.20;;;14.80;99.90;;;;;;5032023;28;20209;-48
2022/09/16 03:25:44;;;;;;;5.73;5.23;;;14.80;99.90;;;;;;5030336;28;20221;-48
2022/09/16 03:28:15;;;;;;;5.60;4.77;;;14.80;99.90;;;;;;5031337;28;20301;-48
2022/09/16 03:30:50;;;;;;;6.60;6.10;;;14.80;99.90;;;;;;5028014;28;20285;-48
2022/09/16 03:33:26;;;;;;;5.37;5.07;;;14.80;99.90;;;;;;5024695;28;20217;-49
2022/09/16 03:35:59;;;;;;;5.53;5.23;;;14.80;99.90;;;;;;5027058;28;20198;-48
2022/09/16 03:38:28;;;;;;;6.00;5.60;;;14.90;99.90;;;;;;5030449;28;20233;-48
2022/09/16 03:40:55;;;;;;;5.33;4.97;;;14.80;99.90;;;;;;5031752;28;20222;-49
2022/09/16 03:43:23;;;;;;;5.37;4.97;;;14.90;99.90;;;;;;5030875;28;20218;-48
2022/09/16 03:45:51;;;;;;;6.00;5.50;;;14.80;99.90;;;;;;5028686;28;20203;-47
2022/09/16 03:48:21;;;;;;;7.90;6.57;;;14.80;99.90;;;;;;5029434;28;20229;-48
2022/09/16 03:50:48;;;;;;;7.73;7.13;;;14.80;99.90;;;;;;5031458;28;20198;-48
2022/09/16 03:53:16;;;;;;;8.40;7.63;;;14.80;99.90;;;;;;5031410;28;20213;-49
2022/09/16 03:55:43;;;;;;;6.93;6.27;;;14.70;99.90;;;;;;5029510;28;20201;-49
2022/09/16 03:58:10;;;;;;;6.60;6.10;;;14.80;99.90;;;;;;5031099;28;20218;-48
2022/09/16 04:00:37;;;;;;;5.33;5.03;;;14.80;99.90;;;;;;5032712;28;20206;-49
2022/09/16 04:03:04;;;;;;;6.10;5.13;;;14.80;99.90;;;;;;5031475;28;20253;-48
2022/09/16 04:05:31;;;;;;;6.80;6.20;;;14.80;99.90;;;;;;5030565;28;20345;-48
2022/09/16 04:07:58;;;;;;;7.23;6.57;;;14.80;99.90;;;;;;5021309;28;20723;-49
2022/09/16 04:10:27;;;;;;;6.83;6.23;;;14.80;99.90;;;;;;5023761;28;20269;-49
2022/09/16 04:12:57;;;;;;;7.73;7.13;;;14.80;99.90;;;;;;5030566;28;20202;-48
2022/09/16 04:15:24;;;;;;;7.00;6.47;;;14.80;99.90;;;;;;5031228;28;20210;-48
2022/09/16 04:17:52;;;;;;;5.73;5.43;;;14.80;99.90;;;;;;5029824;28;20227;-49
2022/09/16 04:20:19;;;;;;;5.80;5.37;;;14.80;99.90;;;;;;5034962;28;20345;-49
2022/09/16 04:22:46;;;;;;;5.97;5.57;;;14.80;99.90;;;;;;5034748;28;20195;-48
2022/09/16 04:25:13;;;;;;;5.73;5.40;;;14.80;99.90;;;;;;5024056;28;20199;-48
2022/09/16 04:27:41;;;;;;;5.70;5.20;;;14.70;99.90;;;;;;5030828;28;20218;-48
2022/09/16 04:30:10;;;;;;;6.87;6.43;;;14.70;99.90;;;;;;5033022;28;20680;-48
2022/09/16 04:32:37;;;;;;;5.77;5.37;;;14.70;99.90;;;;;;5034789;28;20210;-49
2022/09/16 04:35:05;;;;;;;6.57;6.17;;;14.70;99.90;;;;;;5034288;28;20268;-48
2022/09/16 04:37:32;;;;;;;6.33;5.33;;;14.60;99.90;;;;;;5032439;28;20226;-49
2022/09/16 04:40:01;;;;;;;5.73;5.33;;;14.60;99.90;;;;;;5034678;28;20234;-48
2022/09/16 04:42:28;;;;;;;5.33;4.83;;;14.60;99.90;;;;;;5034651;28;20201;-48
2022/09/16 04:44:57;;;;;;;7.10;6.50;;;14.50;99.90;;;;;;5034961;28;20203;-48
2022/09/16 04:47:24;;;;;;;6.90;6.30;;;14.50;99.90;;;;;;5030236;28;20222;-47
2022/09/16 04:49:51;;;;;;;6.10;5.57;;;14.50;99.90;;;;;;5033953;28;20207;-49
2022/09/16 04:52:19;;;;;;;6.33;5.93;;;14.40;99.90;;;;;;5034685;28;20206;-49
2022/09/16 04:54:46;;;;;;;5.60;5.20;;;14.40;99.90;;;;;;5034250;28;20199;-49
2022/09/16 04:57:13;;;;;;;7.93;5.30;;;14.30;99.90;;;;;;5025082;28;20219;-49
2022/09/16 04:59:40;;;;;;;4.97;4.63;;;14.30;99.90;;;;;;5033683;28;20305;-48
2022/09/16 05:02:08;;;;;;;6.53;6.03;;;14.30;99.90;;;;;;5032500;28;20202;-48
2022/09/16 05:04:35;;;;;;;6.07;5.67;;;14.30;99.90;;;;;;5032820;28;20202;-48
2022/09/16 05:07:03;;;;;;;6.93;6.37;;;14.30;99.90;;;;;;5033800;28;20210;-49
2022/09/16 05:09:30;;;;;;;6.33;5.83;;;14.30;99.90;;;;;;5034146;28;20241;-49
2022/09/16 05:11:57;;;;;;;6.60;6.10;;;14.30;99.90;;;;;;5032196;28;20210;-48
2022/09/16 05:14:24;;;;;;;8.27;7.53;;;14.30;99.90;;;;;;5028380;28;20198;-47
2022/09/16 05:16:51;;;;;;;8.47;7.67;;;14.40;99.90;;;;;;5033876;28;20202;-49
2022/09/16 05:19:20;;;;;;;7.93;7.30;;;14.40;99.90;;;;;;5030829;28;20226;-49
2022/09/16 05:21:47;;;;;;;8.37;7.57;;;14.50;99.90;;;;;;5031320;28;20208;-48
2022/09/16 05:24:14;;;;;;;8.57;7.77;;;14.60;99.90;;;;;;5022495;28;20290;-49
2022/09/16 05:26:43;;;;;;;7.00;6.57;;;14.50;99.90;;;;;;5027514;28;20224;-49
2022/09/16 05:29:12;;;;;;;7.30;6.70;;;14.60;99.90;;;;;;5032490;28;20200;-47
2022/09/16 05:31:41;;;;;;;7.17;6.67;;;14.50;99.90;;;;;;5030692;28;20734;-48
2022/09/16 05:34:13;;;;;;;6.77;6.37;;;14.60;99.90;;;;;;5032596;28;20195;-49
2022/09/16 05:36:43;;;;;;;8.37;7.60;;;14.60;99.90;;;;;;5034226;28;20207;-48
2022/09/16 05:39:11;;;;;;;7.40;6.90;;;14.60;99.90;;;;;;5028343;28;20222;-47
2022/09/16 05:41:39;;;;;;;9.47;7.07;;;14.60;99.90;;;;;;5031524;28;20205;-48
2022/09/16 05:44:06;;;;;;;12.33;7.93;;;14.50;99.90;;;;;;5024386;28;20199;-48
2022/09/16 05:46:33;;;;;;;7.73;7.03;;;14.60;99.90;;;;;;5031290;28;20213;-48
2022/09/16 05:49:01;;;;;;;7.63;6.93;;;14.60;99.90;;;;;;5033487;28;20219;-48
2022/09/16 05:51:28;;;;;;;7.73;7.13;;;14.60;99.90;;;;;;5030729;28;20678;-48
2022/09/16 05:53:58;;;;;;;8.03;7.43;;;14.60;99.90;;;;;;5029462;28;20245;-49
2022/09/16 05:56:26;;;;;;;7.33;6.83;;;14.70;99.90;;;;;;5033340;28;20194;-48
2022/09/16 05:58:55;;;;;;;7.67;7.07;;;14.70;99.90;;;;;;5022660;28;20258;-49
2022/09/16 06:01:23;;;;;;;7.50;6.90;;;14.70;99.90;;;;;;5032263;28;20241;-48
2022/09/16 06:03:51;;;;;;;7.27;6.73;;;14.80;99.90;;;;;;5019215;28;20205;-50
2022/09/16 06:06:22;;;;;;;6.70;6.37;;;14.70;99.90;;;;;;5031049;28;20289;-49
2022/09/16 06:08:50;;;;;;;14.00;10.70;;;14.80;99.90;;;;;;5030036;28;20226;-48
2022/09/16 06:11:19;;;;;;;8.80;7.90;;;14.80;99.90;;;;;;5024058;28;20285;-49
2022/09/16 06:13:47;;;;;;;8.77;7.87;;;14.90;99.90;;;;;;5032509;28;20640;-48
2022/09/16 06:16:14;;;;;;;7.80;7.13;;;14.90;99.90;;;;;;5033064;28;20219;-49
2022/09/16 06:18:41;;;;;;;7.63;7.03;;;15.00;99.90;;;;;;5032816;28;20280;-48
2022/09/16 06:21:13;;;;;;;8.80;8.13;;;15.20;99.90;;;;;;5032635;28;20641;-49
2022/09/16 06:23:40;;;;;;;8.00;7.27;;;15.20;99.90;;;;;;5023416;28;20262;-48
2022/09/16 06:26:09;;;;;;;6.73;6.30;;;15.60;99.90;;;;;;5032953;28;20199;-48
2022/09/16 06:28:38;;;;;;;5.83;5.43;;;16.20;99.90;;;;;;5031356;28;20271;-48
2022/09/16 06:31:07;;;;;;;6.30;6.00;;;17.10;99.90;;;;;;5025997;28;20210;-48
2022/09/16 06:33:35;;;;;;;5.83;5.33;;;18.10;99.90;;;;;;5030769;28;20209;-50
2022/09/16 06:36:05;;;;;;;5.70;5.27;;;18.80;99.90;;;;;;5032394;28;20202;-48
2022/09/16 06:38:32;;;;;;;5.80;5.40;;;19.00;99.90;;;;;;5031614;28;20757;-49
2022/09/16 06:41:00;;;;;;;5.40;5.00;;;19.00;99.90;;;;;;5031114;28;20252;-48
2022/09/16 06:43:28;;;;;;;5.03;4.83;;;18.90;99.90;;;;;;5032086;28;20203;-49
2022/09/16 06:46:01;;;;;;;5.87;5.33;;;18.80;99.90;;;;;;5031682;28;20191;-49
2022/09/16 06:48:28;;;;;;;6.03;4.70;;;18.60;99.90;;;;;;5031822;28;20603;-50
2022/09/16 06:50:59;;;;;;;4.57;4.30;;;18.40;99.90;;;;;;5032004;28;20210;-49
2022/09/16 06:53:27;;;;;;;5.87;5.53;;;18.10;99.90;;;;;;5030275;28;20281;-50
2022/09/16 06:55:54;;;;;;;5.13;4.70;;;17.80;99.90;;;;;;5030522;28;20778;-48
2022/09/16 06:58:24;;;;;;;4.87;4.43;;;17.70;99.90;;;;;;5029710;28;20272;-48
2022/09/16 07:00:51;;;;;;;4.73;4.40;;;17.60;99.90;;;;;;5027155;28;20249;-48
2022/09/16 07:03:19;;;;;;;5.20;4.90;;;17.70;99.90;;;;;;5029490;28;20207;-48
2022/09/16 07:05:56;;;;;;;5.03;4.53;;;17.80;99.90;;;;;;5031145;28;20256;-49
2022/09/16 07:08:28;;;;;;;4.90;4.50;;;17.90;99.90;;;;;;5021426;28;20309;-49
2022/09/16 07:10:57;;;;;;;4.07;3.77;;;18.20;99.90;;;;;;5031646;28;20210;-49
2022/09/16 07:13:24;;;;;;;4.23;4.03;;;18.80;99.90;;;;;;5030410;28;20615;-50
2022/09/16 07:15:51;;;;;;;3.10;3.00;;;19.20;99.90;;;;;;5025121;28;20199;-48
2022/09/16 07:18:20;;;;;;;4.80;4.60;;;19.70;99.90;;;;;;5029179;28;20226;-49
2022/09/16 07:20:47;;;;;;;3.67;3.57;;;20.00;99.90;;;;;;5031266;28;20202;-50
2022/09/16 07:23:14;;;;;;;4.33;3.37;;;20.20;99.90;;;;;;5028636;28;20271;-49
2022/09/16 07:25:41;;;;;;;4.73;3.97;;;20.20;99.90;;;;;;5023514;28;20209;-48
2022/09/16 07:28:08;;;;;;;3.63;3.47;;;20.00;99.90;;;;;;5024846;28;20214;-48
2022/09/16 07:30:35;;;;;;;3.70;3.57;;;20.00;99.90;;;;;;5030568;28;20711;-48
2022/09/16 07:33:02;;;;;;;3.53;3.43;;;19.70;99.90;;;;;;5031328;28;20653;-49
2022/09/16 07:35:30;;;;;;;3.20;3.07;;;19.60;99.90;;;;;;5029840;28;20202;-49
2022/09/16 07:37:57;;;;;;;3.30;3.20;;;20.20;99.90;;;;;;5029631;28;20226;-48
2022/09/16 07:40:24;;;;;;;3.03;2.83;;;20.80;99.90;;;;;;5027662;28;20643;-49
2022/09/16 07:42:51;;;;;;;2.20;2.00;;;21.80;99.90;;;;;;5025800;28;20198;-49
2022/09/16 07:45:18;;;;;;;2.43;2.33;;;22.10;99.90;;;;;;5030765;28;20268;-50
2022/09/16 07:47:49;;;;;;;2.50;2.50;;;22.00;99.90;;;;;;5031565;28;20222;-49
2022/09/16 07:50:16;;;;;;;2.73;2.73;;;21.20;99.90;;;;;;5034219;28;20203;-50
2022/09/16 07:52:44;;;;;;;3.37;2.77;;;20.60;99.90;;;;;;5028364;28;20206;-49
2022/09/16 07:55:12;;;;;;;2.90;2.80;;;20.10;99.90;;;;;;5034104;28;20256;-48
2022/09/16 07:57:39;;;;;;;2.70;2.63;;;19.80;99.90;;;;;;5032705;28;20571;-49
2022/09/16 08:00:07;;;;;;;3.27;2.97;;;20.00;99.90;;;;;;5035392;28;20214;-50
2022/09/16 08:02:34;;;;;;;2.57;2.47;;;19.80;99.90;;;;;;5025974;28;20715;-49
2022/09/16 08:05:01;;;;;;;2.77;2.60;;;19.60;99.90;;;;;;5015495;28;20743;-50
2022/09/16 08:07:28;;;;;;;2.60;2.50;;;19.60;99.90;;;;;;5015490;28;20285;-49
2022/09/16 08:09:56;;;;;;;3.07;2.83;;;19.50;99.90;;;;;;5015632;28;20203;-49
2022/09/16 08:12:23;;;;;;;2.73;2.63;;;19.30;99.90;;;;;;5023727;28;20207;-49
2022/09/16 08:14:50;;;;;;;3.47;2.63;;;19.00;99.90;;;;;;5026822;28;20952;-50
2022/09/16 08:17:17;;;;;;;3.00;2.50;;;18.80;99.90;;;;;;5029065;28;20226;-49
2022/09/16 08:19:44;;;;;;;2.60;2.37;;;18.70;99.90;;;;;;5034996;28;20218;-49
2022/09/16 08:22:11;;;;;;;2.30;2.20;;;18.50;99.90;;;;;;5035193;28;20214;-49
2022/09/16 08:24:38;;;;;;;2.67;2.43;;;18.40;99.90;;;;;;5032722;28;20268;-50
2022/09/16 08:27:07;;;;;;;2.50;2.40;;;18.40;99.90;;;;;;5027500;28;20298;-49
2022/09/16 08:29:34;;;;;;;3.27;2.97;;;18.50;99.90;;;;;;5034826;28;20631;-49
2022/09/16 08:32:01;;;;;;;3.33;3.13;;;18.50;99.90;;;;;;5034837;28;20260;-48
2022/09/16 08:34:28;;;;;;;2.80;2.57;;;18.50;99.90;;;;;;5033782;28;20260;-47
2022/09/16 08:36:55;;;;;;;3.00;2.80;;;18.70;99.90;;;;;;5018796;28;20199;-49
2022/09/16 08:39:22;;;;;;;2.77;2.67;;;18.90;99.90;;;;;;5034870;28;20269;-48
2022/09/16 08:42:18;;;;;;;3.13;2.83;;;18.90;99.90;;;;;;5034860;28;20233;-49
2022/09/16 08:44:57;;;;;;;2.73;2.60;;;19.20;99.90;;;;;;5034238;28;20232;-49
2022/09/16 08:47:34;;;;;;;2.60;2.40;;;19.40;99.90;;;;;;5027223;28;20682;-49
2022/09/16 08:50:05;;;;;;;3.93;3.27;;;19.50;99.90;;;;;;5026562;28;20202;-49
2022/09/16 08:52:35;;;;;;;3.17;2.80;;;19.50;99.90;;;;;;5034508;28;20210;-49
2022/09/16 08:55:06;;;;;;;3.57;3.43;;;19.60;99.90;;;;;;5034220;28;20202;-49
2022/09/16 08:57:45;;;;;;;3.40;3.20;;;19.60;99.90;;;;;;5023584;28;20309;-48
2022/09/16 09:00:16;;;;;;;3.50;3.30;;;19.60;99.90;;;;;;5027906;28;20225;-50
2022/09/16 09:02:50;;;;;;;3.23;2.93;;;19.60;99.90;;;;;;5033497;28;20206;-48
2022/09/16 09:05:22;;;;;;;3.40;3.10;;;19.90;99.90;;;;;;5034194;28;20202;-49
2022/09/16 09:08:04;;;;;;;3.17;3.07;;;19.90;99.90;;;;;;5025084;28;20227;-49
2022/09/16 09:10:46;;;;;;;4.10;3.90;;;19.90;99.90;;;;;;5034234;28;20664;-50
2022/09/16 09:13:38;;;;;;;3.57;3.30;;;20.00;99.90;;;;;;5034061;28;20276;-49
2022/09/16 09:16:14;;;;;;;3.07;2.80;;;20.10;99.90;;;;;;5034301;28;20210;-49
2022/09/16 09:18:49;;;;;;;3.30;3.10;;;20.00;99.90;;;;;;5032233;28;20317;-48
2022/09/16 09:21:25;;;;;;;3.73;3.50;;;20.00;99.90;;;;;;5028136;28;20202;-49
2022/09/16 09:24:08;;;;;;;5.47;4.00;;;19.80;99.90;;;;;;5033832;28;20210;-49
2022/09/16 09:26:44;;;;;;;3.83;3.53;;;19.80;99.90;;;;;;5034123;28;20191;-48
2022/09/16 09:29:27;;;;;;;3.90;3.70;;;19.80;99.90;;;;;;5033924;28;20206;-48
2022/09/16 09:32:03;;;;;;;3.67;3.37;;;19.80;99.90;;;;;;5033874;28;20202;-50
2022/09/16 09:34:49;;;;;;;3.10;2.90;;;19.70;99.90;;;;;;5024904;28;20213;-48
2022/09/16 09:37:30;;;;;;;3.07;2.87;;;19.90;99.90;;;;;;5014089;28;20319;-50
2022/09/16 09:40:08;;;;;;;2.83;2.73;;;19.70;99.90;;;;;;5013833;28;20273;-48
2022/09/16 09:42:38;;;;;;;3.23;2.97;;;19.70;99.90;;;;;;5013970;28;20203;-49
2022/09/16 09:45:17;;;;;;;3.43;3.10;;;19.80;99.90;;;;;;5013564;28;20735;-49
2022/09/16 09:47:49;;;;;;;2.73;2.63;;;19.70;99.90;;;;;;5013791;28;20226;-49
2022/09/16 09:50:21;;;;;;;3.63;3.43;;;19.90;99.90;;;;;;5021861;28;20199;-48
2022/09/16 09:52:57;;;;;;;2.90;2.63;;;19.90;99.90;;;;;;5031626;28;20273;-49
2022/09/16 09:55:31;;;;;;;2.43;2.33;;;19.90;99.90;;;;;;5033213;28;20676;-49
2022/09/16 09:58:24;;;;;;;3.20;3.00;;;19.90;99.90;;;;;;5033365;28;20227;-49
2022/09/16 10:00:54;;;;;;;2.57;2.43;;;20.00;99.90;;;;;;5033292;28;20700;-49
2022/09/16 10:03:25;;;;;;;3.10;3.00;;;19.90;99.90;;;;;;5032099;28;20229;-49
2022/09/16 10:05:52;;;;;;;3.33;3.03;;;19.90;99.90;;;;;;5029024;28;20202;-49
2022/09/16 10:08:28;;;;;;;3.15;2.95;;;20.00;99.90;;;;;;5024737;28;20510;-49
2022/09/16 10:10:58;;;;;;;3.17;2.97;;;20.20;99.90;;;;;;5032849;28;20730;-49
2022/09/16 10:13:29;;;;;;;2.77;2.67;;;20.30;99.90;;;;;;5030801;28;20289;-49
2022/09/16 10:16:09;;;;;;;2.87;2.77;;;20.30;99.90;;;;;;5024592;28;20234;-49
2022/09/16 10:18:38;;;;;;;2.97;2.77;;;20.30;99.90;;;;;;5032588;28;20288;-49
2022/09/16 10:21:08;;;;;;;3.00;2.80;;;20.40;99.90;;;;;;5032716;28;20276;-49
2022/09/16 10:23:37;;;;;;;3.10;3.00;;;20.40;99.90;;;;;;5025289;28;20199;-49
2022/09/16 10:26:19;;;;;;;4.57;3.60;;;20.60;99.90;;;;;;5024932;28;20198;-49
2022/09/16 10:29:00;;;;;;;2.80;2.57;;;20.90;99.90;;;;;;5030620;28;20606;-48
2022/09/16 10:31:32;;;;;;;2.60;2.50;;;21.10;99.90;;;;;;5027605;28;20202;-49
2022/09/16 10:34:02;;;;;;;2.80;2.50;;;21.20;99.90;;;;;;5032419;28;20293;-49
2022/09/16 10:36:34;;;;;;;6.23;3.03;;;21.10;99.90;;;;;;5032390;28;20206;-48
2022/09/16 10:39:03;;;;;;;5.37;2.80;;;21.00;99.90;;;;;;5028306;28;20215;-49
2022/09/16 10:41:33;;;;;;;2.53;2.33;;;21.00;99.90;;;;;;5027798;28;20618;-48
2022/09/16 10:44:03;;;;;;;2.30;2.20;;;20.80;99.90;;;;;;5029921;28;20688;-50
2022/09/16 10:46:30;;;;;;;4.83;2.97;;;20.60;99.90;;;;;;5027582;28;20237;-48
2022/09/16 10:49:02;;;;;;;3.23;2.93;;;20.50;99.90;;;;;;5032199;28;20766;-48
2022/09/16 10:51:32;;;;;;;2.47;2.23;;;20.30;99.90;;;;;;5032433;28;20260;-48
2022/09/16 10:54:02;;;;;;;2.73;2.30;;;20.20;99.90;;;;;;5032167;28;20206;-49
2022/09/16 10:56:33;;;;;;;3.03;2.87;;;20.20;99.90;;;;;;5021927;28;20672;-49
2022/09/16 10:59:05;;;;;;;3.03;2.70;;;20.40;99.90;;;;;;5031827;28;20222;-48
2022/09/16 11:01:42;;;;;;;3.00;2.80;;;20.90;99.90;;;;;;5029550;28;20229;-49
2022/09/16 11:04:39;;;;;;;2.43;2.23;;;21.30;99.90;;;;;;5012111;28;20257;-49
2022/09/16 11:07:16;;;;;;;4.10;2.70;;;21.80;99.90;;;;;;5007356;28;20226;-48
2022/09/16 11:09:54;;;;;;;2.97;2.77;;;22.20;99.90;;;;;;5012223;28;20676;-50
2022/09/16 11:12:39;;;;;;;2.07;1.97;;;22.30;99.90;;;;;;5020270;28;20213;-49
2022/09/16 11:15:17;;;;;;;2.53;2.40;;;22.50;99.90;;;;;;5022039;28;20210;-48
2022/09/16 11:18:00;;;;;;;2.83;2.63;;;22.40;99.90;;;;;;5023492;28;20222;-49
2022/09/16 11:21:06;;;;;;;3.87;2.17;;;22.40;99.90;;;;;;5031886;28;20297;-48
2022/09/16 11:23:47;;;;;;;4.53;2.67;;;22.50;99.90;;;;;;5014069;28;20687;-49
2022/09/16 11:26:22;;;;;;;3.00;2.43;;;22.40;99.90;;;;;;5027881;28;20205;-50
2022/09/16 11:29:12;;;;;;;3.13;2.47;;;22.00;99.90;;;;;;5036580;28;20221;-48
2022/09/16 11:31:49;;;;;;;1.70;1.70;;;21.70;99.90;;;;;;5031644;28;20202;-49
2022/09/16 11:34:31;;;;;;;2.50;1.80;;;21.50;99.90;;;;;;5050245;28;20194;-48
2022/09/16 11:37:10;;;;;;;2.40;2.37;;;21.40;99.90;;;;;;5047853;28;20297;-49
2022/09/16 11:40:00;;;;;;;1.90;1.80;;;21.30;99.90;;;;;;5029261;28;20205;-48
2022/09/16 11:42:33;;;;;;;7.93;2.53;;;21.30;99.90;;;;;;5021042;28;20202;-48
2022/09/16 11:45:15;;;;;;;4.60;2.87;;;20.70;99.90;;;;;;5030548;28;20199;-49
2022/09/16 11:48:01;;;;;;;4.27;2.73;;;19.90;99.90;;;;;;5031314;28;20257;-49
2022/09/16 11:50:40;;;;;;;3.70;3.30;;;19.00;99.90;;;;;;5032709;28;20675;-49
2022/09/16 11:53:36;;;;;;;3.50;3.20;;;18.50;99.90;;;;;;5030929;28;20198;-47
2022/09/16 11:56:10;;;;;;;5.73;4.13;;;18.10;99.90;;;;;;5024177;28;20202;-48
2022/09/16 11:58:44;;;;;;;4.40;4.00;;;17.70;99.90;;;;;;5018966;28;20230;-48
2022/09/16 12:01:21;;;;;;;3.73;3.60;;;17.40;99.90;;;;;;5031453;28;20280;-47
2022/09/16 12:03:53;;;;;;;2.87;2.63;;;17.10;99.90;;;;;;5031280;28;20206;-48
2022/09/16 12:06:24;;;;;;;2.00;1.80;;;16.80;99.90;;;;;;5031528;28;20213;-47
2022/09/16 12:08:57;;;;;;;3.03;1.50;;;16.80;99.90;;;;;;5031291;28;20227;-48
2022/09/16 12:11:31;;;;;;;1.90;1.80;;;16.60;99.90;;;;;;5029528;28;20198;-51
2022/09/16 12:14:07;;;;;;;1.13;1.13;;;16.40;99.90;;;;;;5030824;28;20200;-51
2022/09/16 12:16:39;;;;;;;0.80;0.80;;;16.30;99.90;;;;;;5031240;28;20206;-48
2022/09/16 12:19:14;;;;;;;1.10;1.10;;;16.40;99.90;;;;;;5029391;28;20258;-47
2022/09/16 12:21:47;;;;;;;0.80;0.80;;;16.30;99.90;;;;;;5027920;28;20221;-48
2022/09/16 12:24:22;;;;;;;1.30;1.20;;;16.20;99.90;;;;;;5030946;28;20210;-49
2022/09/16 12:26:55;;;;;;;0.93;0.93;;;16.20;99.90;;;;;;5028219;28;20220;-48
2022/09/16 12:29:29;;;;;;;1.80;1.70;;;16.20;99.90;;;;;;5024632;28;20210;-48
2022/09/16 12:32:04;;;;;;;1.23;1.23;;;16.30;99.90;;;;;;5022704;28;20297;-48
2022/09/16 12:34:37;;;;;;;0.50;0.50;;;16.30;99.90;;;;;;5030796;28;20222;-49
2022/09/16 12:37:12;;;;;;;0.60;0.60;;;16.40;99.90;;;;;;5032727;28;20279;-49
2022/09/16 12:39:39;;;;;;;0.90;0.90;;;16.40;99.90;;;;;;5034820;28;20202;-49
2022/09/16 12:42:50;;;;;;;1.30;1.17;;;16.30;99.90;;;;;;5029828;28;20222;-48
2022/09/16 12:45:34;;;;;;;0.63;0.60;;;16.20;99.90;;;;;;5027469;28;20206;-49
2022/09/16 12:48:36;;;;;;;1.00;1.00;;;16.20;99.90;;;;;;5031441;28;20272;-49
2022/09/16 12:51:29;;;;;;;1.57;1.20;;;16.20;99.90;;;;;;5023777;28;20205;-49
2022/09/16 12:54:24;;;;;;;1.90;0.60;;;16.20;99.90;;;;;;5034084;28;20555;-48
2022/09/16 12:57:17;;;;;;;1.27;1.17;;;16.20;99.90;;;;;;5032913;28;20210;-48
2022/09/16 13:00:05;;;;;;;2.50;0.90;;;16.10;99.90;;;;;;5029385;28;20209;-49
2022/09/16 13:02:37;;;;;;;1.10;0.70;;;16.20;99.90;;;;;;5033945;28;20615;-49
2022/09/16 13:05:16;;;;;;;1.23;1.23;;;16.20;99.90;;;;;;5033700;28;20256;-49
2022/09/16 13:07:43;;;;;;;1.40;0.80;;;16.20;99.90;;;;;;5032396;28;20226;-48
2022/09/16 13:10:17;;;;;;;1.10;1.10;;;16.20;99.90;;;;;;5033108;28;20620;-50
2022/09/16 13:12:51;;;;;;;1.70;1.00;;;16.20;99.90;;;;;;5033695;28;20660;-49